createdAt,value
2022-12-15T00:02:42.347Z,78.00
2022-12-15T00:05:29.211Z,74.40
2022-12-15T00:08:15.507Z,71.90
2022-12-15T00:11:02.108Z,70.00
2022-12-15T00:16:35.305Z,72.30
2022-12-15T00:19:22.519Z,73.80
2022-12-15T00:22:09.965Z,70.40
2022-12-15T00:24:56.671Z,69.70
2022-12-15T00:27:43.073Z,72.10
2022-12-15T00:30:29.942Z,71.40
2022-12-15T00:33:17.302Z,74.80
2022-12-15T00:36:03.908Z,77.00
2022-12-15T00:38:41.810Z,79.00
2022-12-15T00:41:10.695Z,73.50
2022-12-15T00:43:38.688Z,73.90
2022-12-15T00:46:26.133Z,71.50
2022-12-15T00:48:54.273Z,71.90
2022-12-15T00:51:22.215Z,73.90
2022-12-15T00:54:11.937Z,68.60
2022-12-15T00:57:02.848Z,73.20
2022-12-15T00:59:49.435Z,67.00
2022-12-15T01:02:36.030Z,73.00
2022-12-15T01:08:09.743Z,70.10
2022-12-15T01:10:56.554Z,70.40
2022-12-15T01:13:42.769Z,66.60
2022-12-15T01:16:32.499Z,65.20
2022-12-15T01:19:18.983Z,62.50
2022-12-15T01:21:46.619Z,70.40
2022-12-15T01:24:14.185Z,82.50
2022-12-15T01:26:41.889Z,76.40
2022-12-15T01:29:09.579Z,78.20
2022-12-15T01:31:37.237Z,74.70
2022-12-15T01:34:05.013Z,75.00
2022-12-15T01:36:33.264Z,73.10
2022-12-15T01:39:01.385Z,73.50
2022-12-15T01:41:30.021Z,67.20
2022-12-15T01:44:16.996Z,69.00
2022-12-15T01:46:44.846Z,65.20
2022-12-15T01:49:25.093Z,69.00
2022-12-15T01:51:55.713Z,71.00
2022-12-15T01:54:24.488Z,65.50
2022-12-15T01:56:56.550Z,67.00
2022-12-15T01:59:28.189Z,62.70
2022-12-15T02:01:55.964Z,59.00
2022-12-15T02:04:24.518Z,65.60
2022-12-15T02:06:53.262Z,65.60
2022-12-15T02:09:21.517Z,61.80
2022-12-15T02:11:49.235Z,67.30
2022-12-15T02:14:37.025Z,66.20
2022-12-15T02:17:07.484Z,60.50
2022-12-15T02:19:53.711Z,64.10
2022-12-15T02:22:33.837Z,58.70
2022-12-15T02:25:10.543Z,64.60
2022-12-15T02:28:07.586Z,63.40
2022-12-15T02:30:41.251Z,60.30
2022-12-15T02:33:08.855Z,62.80
2022-12-15T02:35:42.564Z,61.60
2022-12-15T02:38:10.355Z,65.80
2022-12-15T02:40:38.001Z,67.70
2022-12-15T02:43:06.790Z,67.40
2022-12-15T02:45:54.885Z,71.20
2022-12-15T02:48:40.644Z,69.60
2022-12-15T02:51:27.183Z,67.60
2022-12-15T02:54:15.266Z,68.80
2022-12-15T02:57:04.113Z,70.70
2022-12-15T02:59:43.710Z,68.20
2022-12-15T03:02:13.323Z,72.80
2022-12-15T03:04:42.656Z,72.40
2022-12-15T03:07:10.495Z,66.80
2022-12-15T03:09:38.249Z,72.80
2022-12-15T03:12:06.321Z,70.50
2022-12-15T03:14:33.928Z,68.10
2022-12-15T03:17:01.773Z,66.20
2022-12-15T03:19:29.621Z,75.10
2022-12-15T03:21:57.172Z,70.80
2022-12-15T03:24:24.941Z,73.20
2022-12-15T03:26:53.409Z,69.40
2022-12-15T03:29:21.080Z,73.20
2022-12-15T03:31:49.964Z,73.10
2022-12-15T03:34:18.107Z,69.30
2022-12-15T03:36:45.907Z,75.70
2022-12-15T03:39:13.874Z,77.10
2022-12-15T03:41:41.819Z,73.80
2022-12-15T03:44:09.912Z,65.40
2022-12-15T03:46:37.675Z,69.70
2022-12-15T03:49:05.513Z,73.00
2022-12-15T03:51:33.099Z,73.50
2022-12-15T03:54:01.373Z,73.50
2022-12-15T03:56:29.320Z,75.20
2022-12-15T03:58:58.323Z,73.60
2022-12-15T04:01:29.126Z,76.30
2022-12-15T04:04:00.849Z,79.90
2022-12-15T04:06:30.125Z,82.40
2022-12-15T04:08:57.988Z,79.30
2022-12-15T04:11:26.211Z,77.80
2022-12-15T04:13:54.571Z,74.90
2022-12-15T04:16:22.417Z,68.70
2022-12-15T04:19:10.116Z,74.10
2022-12-15T04:21:37.985Z,77.80
2022-12-15T04:24:25.221Z,74.70
2022-12-15T04:27:11.431Z,75.40
2022-12-15T04:29:58.001Z,73.10
2022-12-15T04:32:44.966Z,67.70
2022-12-15T04:35:37.189Z,74.40
2022-12-15T04:43:56.721Z,72.00
2022-12-15T04:46:43.242Z,72.10
2022-12-15T04:49:29.577Z,75.80
2022-12-15T04:52:16.692Z,79.80
2022-12-15T04:55:02.918Z,77.90
2022-12-15T04:57:49.527Z,73.90
2022-12-15T05:00:36.186Z,74.30
2022-12-15T05:03:26.490Z,68.70
2022-12-15T05:06:12.795Z,73.00
2022-12-15T05:08:59.457Z,73.80
2022-12-15T05:11:45.956Z,65.90
2022-12-15T05:14:32.248Z,70.10
2022-12-15T05:17:18.746Z,73.40
2022-12-15T05:20:05.076Z,68.40
2022-12-15T05:22:51.629Z,70.70
2022-12-15T05:25:38.237Z,68.40
2022-12-15T05:28:25.551Z,68.70
2022-12-15T05:31:12.178Z,69.70
2022-12-15T05:33:39.993Z,64.90
2022-12-15T05:36:08.254Z,73.60
2022-12-15T05:38:35.913Z,68.80
2022-12-15T05:41:03.694Z,72.50
2022-12-15T05:43:31.652Z,69.30
2022-12-15T05:46:03.883Z,69.00
2022-12-15T05:48:31.763Z,74.70
2022-12-15T05:51:02.904Z,74.20
2022-12-15T05:53:30.829Z,62.20
2022-12-15T05:56:02.793Z,70.30
2022-12-15T05:58:30.649Z,71.10
2022-12-15T06:01:06.208Z,114.80
2022-12-15T06:03:34.825Z,134.70
2022-12-15T06:06:03.545Z,147.10
2022-12-15T06:08:33.153Z,148.20
2022-12-15T06:11:01.201Z,142.70
2022-12-15T06:13:31.841Z,139.60
2022-12-15T06:16:05.227Z,138.00
2022-12-15T06:18:34.767Z,115.60
2022-12-15T06:21:04.663Z,87.20
2022-12-15T06:23:35.156Z,76.50
2022-12-15T06:26:23.824Z,68.50
2022-12-15T06:28:52.426Z,68.00
2022-12-15T06:31:23.059Z,64.70
2022-12-15T06:33:54.751Z,66.30
2022-12-15T06:36:29.110Z,60.20
2022-12-15T06:39:00.931Z,60.70
2022-12-15T06:41:32.750Z,57.40
2022-12-15T06:44:01.121Z,64.20
2022-12-15T06:46:30.298Z,57.90
2022-12-15T06:48:58.368Z,56.40
2022-12-15T06:51:26.461Z,58.40
2022-12-15T06:53:55.361Z,52.50
2022-12-15T06:56:33.010Z,56.20
2022-12-15T06:59:02.404Z,58.00
2022-12-15T07:01:30.973Z,53.20
2022-12-15T07:04:03.350Z,50.30
2022-12-15T07:06:36.865Z,53.70
2022-12-15T07:09:07.384Z,53.30
2022-12-15T07:11:35.608Z,51.00
2022-12-15T07:14:03.671Z,50.20
2022-12-15T07:16:31.400Z,53.10
2022-12-15T07:18:59.422Z,50.50
2022-12-15T07:21:27.160Z,49.80
2022-12-15T07:23:56.829Z,45.40
2022-12-15T07:26:25.753Z,50.90
2022-12-15T07:28:54.230Z,50.30
2022-12-15T07:31:23.024Z,52.30
2022-12-15T07:33:53.044Z,47.60
2022-12-15T07:36:21.538Z,50.40
2022-12-15T07:38:50.564Z,50.30
2022-12-15T07:41:19.408Z,48.00
2022-12-15T07:43:47.862Z,47.00
2022-12-15T07:46:16.379Z,49.80
2022-12-15T07:48:44.230Z,52.10
2022-12-15T07:51:20.286Z,49.10
2022-12-15T07:53:50.271Z,51.70
2022-12-15T07:56:18.582Z,54.90
2022-12-15T07:58:47.525Z,50.60
2022-12-15T08:01:15.879Z,52.50
2022-12-15T08:03:45.214Z,44.80
2022-12-15T08:06:14.302Z,49.10
2022-12-15T08:08:43.752Z,43.30
2022-12-15T08:11:12.448Z,50.40
2022-12-15T08:16:29.343Z,47.60
2022-12-15T08:18:57.406Z,45.50
2022-12-15T08:21:25.740Z,43.60
2022-12-15T08:23:53.494Z,44.70
2022-12-15T08:26:25.238Z,44.70
2022-12-15T08:29:11.720Z,44.20
2022-12-15T08:31:45.804Z,43.40
2022-12-15T08:34:13.505Z,46.10
2022-12-15T08:36:41.882Z,46.10
2022-12-15T08:39:09.841Z,43.20
2022-12-15T08:41:37.511Z,43.70
2022-12-15T08:44:05.479Z,41.60
2022-12-15T08:46:34.492Z,36.80
2022-12-15T08:49:03.546Z,36.40
2022-12-15T08:51:32.347Z,38.00
2022-12-15T08:54:01.131Z,37.50
2022-12-15T08:56:29.408Z,38.80
2022-12-15T08:58:58.360Z,36.50
2022-12-15T09:01:27.205Z,40.40
2022-12-15T09:03:56.178Z,36.10
2022-12-15T09:06:25.685Z,30.10
2022-12-15T09:08:54.775Z,27.80
2022-12-15T09:11:23.459Z,26.30
2022-12-15T09:13:51.194Z,24.70
2022-12-15T09:16:19.547Z,28.20
2022-12-15T09:18:48.984Z,26.70
2022-12-15T09:21:16.868Z,27.30
2022-12-15T09:23:47.824Z,27.20
2022-12-15T09:26:15.967Z,26.60
2022-12-15T09:28:44.046Z,29.20
2022-12-15T09:31:29.009Z,28.40
2022-12-15T09:33:59.778Z,28.20
2022-12-15T09:36:27.741Z,31.30
2022-12-15T09:38:55.420Z,32.40
2022-12-15T09:41:28.272Z,26.30
2022-12-15T09:44:01.008Z,30.30
2022-12-15T09:46:44.098Z,26.70
2022-12-15T09:49:29.940Z,31.10
2022-12-15T09:52:08.851Z,29.50
2022-12-15T09:54:41.880Z,28.70
2022-12-15T09:57:15.739Z,29.60
2022-12-15T10:00:02.676Z,26.90
2022-12-15T10:02:30.772Z,24.80
2022-12-15T10:05:13.593Z,25.30
2022-12-15T10:07:46.595Z,26.50
2022-12-15T10:12:57.598Z,25.30
2022-12-15T10:15:38.848Z,26.20
2022-12-15T10:18:13.145Z,23.60
2022-12-15T10:20:43.030Z,29.00
2022-12-15T10:23:13.031Z,26.90
2022-12-15T10:25:45.951Z,29.20
2022-12-15T10:28:17.285Z,26.30
2022-12-15T10:30:49.725Z,25.20
2022-12-15T10:33:20.192Z,27.00
2022-12-15T10:35:48.571Z,24.60
2022-12-15T10:38:17.356Z,28.70
2022-12-15T10:40:50.250Z,25.80
2022-12-15T10:43:37.783Z,26.60
2022-12-15T10:46:09.069Z,26.90
2022-12-15T10:48:37.725Z,29.30
2022-12-15T10:51:38.327Z,30.40
2022-12-15T10:54:07.216Z,28.70
2022-12-15T10:56:35.033Z,26.70
2022-12-15T10:59:22.293Z,25.40
2022-12-15T11:01:50.803Z,24.10
2022-12-15T11:04:29.280Z,33.70
2022-12-15T11:07:01.955Z,27.40
2022-12-15T11:09:29.796Z,27.20
2022-12-15T11:12:16.186Z,28.50
2022-12-15T11:14:44.294Z,32.40
2022-12-15T11:17:18.105Z,28.00
2022-12-15T11:20:02.216Z,26.80
2022-12-15T11:22:42.832Z,29.30
2022-12-15T11:25:29.447Z,26.00
2022-12-15T11:27:58.114Z,26.90
2022-12-15T11:30:35.095Z,28.80
2022-12-15T11:33:03.322Z,26.20
2022-12-15T11:35:46.277Z,28.00
2022-12-15T11:38:21.222Z,29.30
2022-12-15T11:40:50.552Z,28.70
2022-12-15T11:43:36.753Z,25.30
2022-12-15T11:46:07.652Z,28.90
2022-12-15T11:48:41.850Z,27.60
2022-12-15T11:51:17.757Z,25.70
2022-12-15T11:53:55.205Z,28.80
2022-12-15T11:56:42.583Z,27.70
2022-12-15T11:59:22.792Z,28.00
2022-12-15T12:02:09.548Z,26.60
2022-12-15T12:04:37.222Z,28.80
2022-12-15T12:07:04.918Z,27.10
2022-12-15T12:09:37.391Z,24.10
2022-12-15T12:12:05.542Z,25.60
2022-12-15T12:14:41.415Z,24.90
2022-12-15T12:17:18.303Z,28.10
2022-12-15T12:19:51.305Z,33.90
2022-12-15T12:22:19.145Z,27.60
2022-12-15T12:24:59.196Z,29.00
2022-12-15T12:27:27.661Z,35.00
2022-12-15T12:30:02.105Z,32.60
2022-12-15T12:32:40.507Z,31.00
2022-12-15T12:35:33.467Z,29.20
2022-12-15T12:38:04.501Z,28.40
2022-12-15T12:40:33.026Z,27.60
2022-12-15T12:43:04.391Z,28.10
2022-12-15T12:45:37.584Z,29.60
2022-12-15T12:48:14.618Z,28.80
2022-12-15T12:50:42.880Z,30.80
2022-12-15T12:53:25.798Z,25.80
2022-12-15T12:55:54.893Z,30.30
2022-12-15T12:58:39.953Z,30.60
2022-12-15T13:01:10.809Z,29.50
2022-12-15T13:03:39.885Z,28.00
2022-12-15T13:06:21.679Z,28.30
2022-12-15T13:08:51.573Z,29.90
2022-12-15T13:11:45.263Z,29.70
2022-12-15T13:14:21.059Z,28.70
2022-12-15T13:17:24.873Z,32.10
2022-12-15T13:19:58.945Z,34.80
2022-12-15T13:22:26.815Z,33.00
2022-12-15T13:24:56.098Z,35.20
2022-12-15T13:27:24.062Z,31.30
2022-12-15T13:30:00.941Z,31.10
2022-12-15T13:34:58.647Z,31.50
2022-12-15T13:37:49.107Z,28.60
2022-12-15T13:40:23.536Z,27.90
2022-12-15T13:42:58.870Z,28.80
2022-12-15T13:45:36.622Z,29.70
2022-12-15T13:48:13.699Z,27.90
2022-12-15T13:50:51.311Z,28.10
2022-12-15T13:53:22.315Z,32.10
2022-12-15T13:55:56.783Z,34.40
2022-12-15T13:58:26.060Z,30.80
2022-12-15T14:00:55.136Z,30.70
2022-12-15T14:03:23.453Z,33.00
2022-12-15T14:05:56.361Z,29.00
2022-12-15T14:08:26.073Z,39.10
2022-12-15T14:10:57.306Z,44.90
2022-12-15T14:13:26.504Z,32.20
2022-12-15T14:16:00.035Z,29.70
2022-12-15T14:18:32.845Z,34.30
2022-12-15T14:21:02.304Z,34.50
2022-12-15T14:23:38.732Z,27.90
2022-12-15T14:26:08.055Z,29.10
2022-12-15T14:28:36.840Z,28.10
2022-12-15T14:31:06.447Z,33.50
2022-12-15T14:33:37.215Z,34.00
2022-12-15T14:36:07.356Z,30.50
2022-12-15T14:38:44.175Z,32.20
2022-12-15T14:43:41.444Z,27.40
2022-12-15T14:46:11.762Z,29.00
2022-12-15T14:48:42.433Z,26.20
2022-12-15T14:51:13.440Z,26.10
2022-12-15T14:53:42.531Z,29.10
2022-12-15T14:56:15.107Z,28.80
2022-12-15T14:58:43.685Z,26.60
2022-12-15T15:01:22.865Z,25.90
2022-12-15T15:04:01.218Z,27.20
2022-12-15T15:06:31.545Z,28.30
2022-12-15T15:09:06.898Z,28.20
2022-12-15T15:11:39.788Z,29.40
2022-12-15T15:14:17.124Z,27.50
2022-12-15T15:16:45.234Z,24.80
2022-12-15T15:19:16.957Z,26.40
2022-12-15T15:21:46.097Z,33.80
2022-12-15T15:24:14.463Z,28.30
2022-12-15T15:26:43.393Z,30.70
2022-12-15T15:29:37.748Z,29.30
2022-12-15T15:32:08.045Z,33.30
2022-12-15T15:34:36.031Z,37.30
2022-12-15T15:37:06.354Z,42.10
2022-12-15T15:39:34.119Z,35.00
2022-12-15T15:42:09.765Z,32.70
2022-12-15T15:44:37.733Z,32.60
2022-12-15T15:47:06.466Z,34.80
2022-12-15T15:49:37.896Z,27.40
2022-12-15T15:52:09.468Z,34.80
2022-12-15T15:54:37.429Z,31.80
2022-12-15T15:57:05.253Z,31.80
2022-12-15T15:59:34.449Z,31.60
2022-12-15T16:02:03.519Z,34.10
2022-12-15T16:04:32.025Z,31.90
2022-12-15T16:07:01.841Z,39.10
2022-12-15T16:09:30.320Z,41.40
2022-12-15T16:11:59.715Z,39.80
2022-12-15T16:14:27.579Z,37.70
2022-12-15T16:16:55.650Z,50.70
2022-12-15T16:19:25.886Z,58.80
2022-12-15T16:21:55.869Z,50.90
2022-12-15T16:24:24.267Z,57.60
2022-12-15T16:26:52.181Z,52.00
2022-12-15T16:29:21.132Z,49.50
2022-12-15T16:31:49.877Z,44.30
2022-12-15T16:34:19.242Z,48.20
2022-12-15T16:36:47.784Z,51.20
2022-12-15T16:39:27.336Z,83.50
2022-12-15T16:41:56.442Z,88.10
2022-12-15T16:44:25.522Z,82.40
2022-12-15T16:46:54.057Z,90.50
2022-12-15T16:49:23.107Z,91.10
2022-12-15T16:51:52.907Z,84.40
2022-12-15T16:54:24.429Z,68.80
2022-12-15T16:56:54.375Z,69.30
2022-12-15T16:59:39.157Z,57.60
2022-12-15T17:02:26.115Z,46.20
2022-12-15T17:04:55.554Z,45.80
2022-12-15T17:07:25.226Z,43.70
2022-12-15T17:09:53.226Z,36.10
2022-12-15T17:12:21.295Z,35.90
2022-12-15T17:14:49.878Z,34.70
2022-12-15T17:17:19.512Z,37.50
2022-12-15T17:22:38.466Z,34.10
2022-12-15T17:25:07.509Z,32.70
2022-12-15T17:27:35.621Z,41.80
2022-12-15T17:30:03.910Z,37.20
2022-12-15T17:32:32.078Z,40.40
2022-12-15T17:35:00.254Z,40.80
2022-12-15T17:37:34.894Z,46.10
2022-12-15T17:40:14.820Z,42.50
2022-12-15T17:42:43.193Z,40.50
2022-12-15T17:45:22.057Z,32.00
2022-12-15T17:47:51.314Z,35.60
2022-12-15T17:50:19.488Z,37.70
2022-12-15T17:52:48.810Z,37.60
2022-12-15T17:55:23.378Z,38.00
2022-12-15T17:57:53.733Z,35.00
2022-12-15T18:00:32.016Z,43.10
2022-12-15T18:03:01.516Z,37.90
2022-12-15T18:05:31.360Z,42.40
2022-12-15T18:08:02.678Z,43.50
2022-12-15T18:10:36.726Z,41.20
2022-12-15T18:13:14.367Z,36.80
2022-12-15T18:15:43.989Z,41.60
2022-12-15T18:18:12.808Z,44.20
2022-12-15T18:20:41.494Z,42.70
2022-12-15T18:23:16.729Z,49.20
2022-12-15T18:25:45.135Z,54.90
2022-12-15T18:28:23.003Z,54.80
2022-12-15T18:30:52.655Z,61.30
2022-12-15T18:33:22.115Z,71.00
2022-12-15T18:35:50.905Z,72.20
2022-12-15T18:38:18.972Z,77.60
2022-12-15T18:40:48.285Z,72.20
2022-12-15T18:43:26.789Z,80.90
2022-12-15T18:45:55.205Z,66.50
2022-12-15T18:48:24.464Z,66.20
2022-12-15T18:50:53.464Z,59.20
2022-12-15T18:53:32.004Z,67.70
2022-12-15T18:56:01.799Z,81.40
2022-12-15T18:58:31.708Z,77.20
2022-12-15T19:01:01.557Z,81.70
2022-12-15T19:03:30.363Z,79.50
2022-12-15T19:06:26.093Z,70.90
2022-12-15T19:08:54.571Z,60.00
2022-12-15T19:11:31.263Z,61.40
2022-12-15T19:16:47.810Z,68.60
2022-12-15T19:19:34.596Z,73.20
2022-12-15T19:22:27.347Z,81.90
2022-12-15T19:24:55.832Z,89.20
2022-12-15T19:27:26.859Z,79.40
2022-12-15T19:29:55.144Z,76.40
2022-12-15T19:32:23.409Z,66.80
2022-12-15T19:34:52.016Z,62.00
2022-12-15T19:37:28.245Z,64.30
2022-12-15T19:39:57.663Z,83.50
2022-12-15T19:42:33.698Z,74.70
2022-12-15T19:45:02.301Z,84.60
2022-12-15T19:47:30.189Z,80.00
2022-12-15T19:49:58.231Z,93.10
2022-12-15T19:52:26.816Z,91.00
2022-12-15T19:54:54.883Z,96.20
2022-12-15T19:57:23.284Z,90.10
2022-12-15T19:59:51.954Z,96.20
2022-12-15T20:02:22.784Z,86.80
2022-12-15T20:04:51.728Z,124.00
2022-12-15T20:07:29.003Z,92.90
2022-12-15T20:09:58.461Z,85.40
2022-12-15T20:12:27.725Z,96.50
2022-12-15T20:14:55.625Z,96.90
2022-12-15T20:17:23.698Z,86.50
2022-12-15T20:19:52.297Z,93.90
2022-12-15T20:22:21.857Z,92.00
2022-12-15T20:24:50.620Z,97.80
2022-12-15T20:27:20.158Z,84.20
2022-12-15T20:29:48.445Z,82.70
2022-12-15T20:32:19.201Z,87.40
2022-12-15T20:34:48.384Z,86.90
2022-12-15T20:37:19.648Z,86.10
2022-12-15T20:39:49.439Z,73.20
2022-12-15T20:42:22.239Z,74.00
2022-12-15T20:44:50.398Z,72.40
2022-12-15T20:47:24.564Z,70.30
2022-12-15T20:49:54.437Z,67.10
2022-12-15T20:52:24.799Z,78.80
2022-12-15T20:54:56.140Z,73.50
2022-12-15T20:57:24.376Z,72.80
2022-12-15T20:59:52.635Z,77.10
2022-12-15T21:02:22.318Z,101.80
2022-12-15T21:04:51.363Z,114.10
2022-12-15T21:07:20.026Z,153.90
2022-12-15T21:09:48.514Z,106.60
2022-12-15T21:12:21.290Z,87.00
2022-12-15T21:14:49.453Z,66.70
2022-12-15T21:17:18.758Z,57.70
2022-12-15T21:19:46.821Z,61.10
2022-12-15T21:22:17.746Z,71.20
2022-12-15T21:24:46.043Z,76.00
2022-12-15T21:27:17.715Z,86.40
2022-12-15T21:29:52.345Z,79.10
2022-12-15T21:32:21.356Z,79.50
2022-12-15T21:34:51.803Z,81.20
2022-12-15T21:37:23.269Z,86.10
2022-12-15T21:39:52.085Z,77.70
2022-12-15T21:42:21.374Z,79.70
2022-12-15T21:44:49.339Z,82.20
2022-12-15T21:47:17.409Z,105.50
2022-12-15T21:49:45.374Z,99.10
2022-12-15T21:52:13.452Z,93.30
2022-12-15T21:54:41.169Z,95.70
2022-12-15T21:57:11.342Z,89.40
2022-12-15T21:59:39.165Z,96.60
2022-12-15T22:02:26.490Z,92.40
2022-12-15T22:04:55.251Z,93.70
2022-12-15T22:07:23.377Z,111.50
2022-12-15T22:09:51.928Z,101.30
2022-12-15T22:12:21.492Z,115.20
2022-12-15T22:14:49.628Z,105.30
2022-12-15T22:17:19.031Z,95.90
2022-12-15T22:19:47.929Z,95.60
2022-12-15T22:22:16.766Z,100.00
2022-12-15T22:24:44.658Z,91.80
2022-12-15T22:27:20.129Z,92.80
2022-12-15T22:29:49.538Z,88.10
2022-12-15T22:32:17.805Z,93.90
2022-12-15T22:34:45.764Z,97.50
2022-12-15T22:37:13.730Z,95.80
2022-12-15T22:39:46.976Z,87.10
2022-12-15T22:42:16.872Z,96.80
2022-12-15T22:44:45.211Z,97.10
2022-12-15T22:47:13.062Z,90.50
2022-12-15T22:49:41.242Z,104.00
2022-12-15T22:52:20.073Z,98.30
2022-12-15T22:54:48.100Z,94.10
2022-12-15T22:57:23.898Z,83.00
2022-12-15T23:00:11.804Z,86.10
2022-12-15T23:02:43.437Z,89.90
2022-12-15T23:05:16.571Z,89.30
2022-12-15T23:07:45.096Z,99.60
2022-12-15T23:10:32.269Z,91.10
2022-12-15T23:13:00.348Z,93.50
2022-12-15T23:15:47.329Z,99.00
2022-12-15T23:18:15.321Z,109.10
2022-12-15T23:20:43.232Z,101.00
2022-12-15T23:23:13.736Z,117.60
2022-12-15T23:25:41.439Z,125.50
2022-12-15T23:28:09.435Z,124.40
2022-12-15T23:30:37.195Z,129.00
2022-12-15T23:33:05.280Z,136.20
2022-12-15T23:35:32.941Z,124.40
2022-12-15T23:38:00.704Z,133.10
2022-12-15T23:40:28.363Z,143.50
2022-12-15T23:42:56.036Z,117.00
2022-12-15T23:45:23.661Z,134.10
2022-12-15T23:47:52.163Z,147.80
2022-12-15T23:50:22.281Z,148.00
2022-12-15T23:52:51.735Z,145.80
2022-12-15T23:55:19.936Z,141.50
2022-12-15T23:57:47.723Z,138.80
